Time;durP1;ratioP1;P1;durP2;ratioP2;P2;SDS_P1;SDS_P2;PMS_P1;PMS_P2;Temp;Humidity;BMP_temperature;BMP_pressure;BME280_temperature;BME280_humidity;BME280_pressure;Samples;Min_cycle;Max_cycle;Signal;HPM_P1;HPM_P2
2024/01/18 00:00:48;;;;;;;19.40;9.40;;;;;;;1.60;72.46;100122.87;107139;1257;109059;-71
2024/01/18 00:03:39;;;;;;;20.30;9.60;;;;;;;1.54;73.53;100119.86;107219;1257;108790;-69
2024/01/18 00:06:08;;;;;;;17.70;8.90;;;;;;;1.48;73.13;100116.71;107267;1257;99201;-70
2024/01/18 00:08:36;;;;;;;20.30;9.60;;;;;;;1.45;72.94;100106.58;107266;1257;99090;-71
2024/01/18 00:11:04;;;;;;;15.00;9.30;;;;;;;1.45;72.98;100101.83;107246;1259;113737;-71
2024/01/18 00:13:33;;;;;;;17.00;9.50;;;;;;;1.47;73.40;100097.52;107267;1257;107896;-71
2024/01/18 00:16:01;;;;;;;17.20;9.20;;;;;;;1.49;73.51;100093.13;107264;1259;106854;-72
2024/01/18 00:18:29;;;;;;;16.80;9.10;;;;;;;1.51;73.44;100091.01;107338;1259;99195;-72
2024/01/18 00:20:58;;;;;;;16.80;9.20;;;;;;;1.57;73.54;100096.52;107306;1259;99730;-70
2024/01/18 00:23:27;;;;;;;22.10;9.40;;;;;;;1.62;73.67;100087.04;107192;1257;113811;-70
2024/01/18 00:25:55;;;;;;;14.70;8.60;;;;;;;1.67;73.71;100084.38;107268;1257;107901;-71
2024/01/18 00:28:24;;;;;;;14.30;8.70;;;;;;;1.77;73.82;100078.33;107204;1257;107828;-71
2024/01/18 00:30:52;;;;;;;14.60;7.90;;;;;;;1.85;73.80;100074.60;107092;1257;99325;-71
2024/01/18 00:33:21;;;;;;;17.60;9.50;;;;;;;1.92;73.73;100077.70;107024;1262;99129;-71
2024/01/18 00:35:50;;;;;;;14.40;8.70;;;;;;;1.99;73.87;100076.22;107206;1257;112016;-70
2024/01/18 00:38:18;;;;;;;16.10;7.70;;;;;;;2.04;73.59;100071.66;107208;1257;107796;-70
2024/01/18 00:40:46;;;;;;;12.80;7.80;;;;;;;2.07;73.50;100074.66;107078;1261;107669;-70
2024/01/18 00:43:14;;;;;;;13.70;8.10;;;;;;;2.10;73.31;100084.00;107206;1255;99258;-70
2024/01/18 00:45:43;;;;;;;17.20;8.90;;;;;;;2.08;73.37;100083.98;107262;1256;99317;-70
2024/01/18 00:48:11;;;;;;;13.60;8.00;;;;;;;2.02;73.15;100075.29;107269;1259;113393;-70
2024/01/18 00:50:40;;;;;;;14.80;8.70;;;;;;;2.02;73.35;100071.55;107238;1257;108137;-70
2024/01/18 00:53:08;;;;;;;15.80;7.50;;;;;;;2.06;73.30;100067.48;107251;1257;107472;-70
2024/01/18 00:55:36;;;;;;;11.40;7.60;;;;;;;2.08;73.26;100064.52;107252;1257;99230;-71
2024/01/18 00:58:05;;;;;;;14.30;8.10;;;;;;;2.14;73.02;100063.25;107278;1257;99067;-72
2024/01/18 01:00:33;;;;;;;14.10;7.90;;;;;;;2.16;72.99;100047.37;107256;1257;114141;-72
2024/01/18 01:03:02;;;;;;;12.80;7.70;;;;;;;2.18;73.06;100042.11;107237;1257;108308;-71
2024/01/18 01:05:30;;;;;;;11.60;7.30;;;;;;;2.18;72.88;100047.42;107240;1257;107933;-71
2024/01/18 01:07:58;;;;;;;11.10;7.00;;;;;;;2.19;72.80;100039.38;107205;1256;99191;-72
2024/01/18 01:10:27;;;;;;;13.10;6.30;;;;;;;2.23;72.86;100029.01;107218;1256;99163;-71
2024/01/18 01:12:55;;;;;;;13.00;6.40;;;;;;;2.30;72.84;100013.52;107305;1259;115465;-72
2024/01/18 01:15:23;;;;;;;13.40;6.80;;;;;;;2.35;72.66;99997.23;107271;1259;107427;-71
2024/01/18 01:17:52;;;;;;;9.10;6.00;;;;;;;2.44;72.55;99992.98;107201;1257;108848;-71
2024/01/18 01:20:20;;;;;;;13.20;6.60;;;;;;;2.50;72.27;99988.16;107321;1257;99261;-71
2024/01/18 01:22:49;;;;;;;13.40;6.60;;;;;;;2.54;72.20;99985.96;107289;1259;99752;-71
2024/01/18 01:25:18;;;;;;;12.00;7.30;;;;;;;2.57;72.23;99983.77;107239;1260;113314;-71
2024/01/18 01:27:46;;;;;;;11.90;6.00;;;;;;;2.62;72.27;99980.94;107239;1256;107683;-71
2024/01/18 01:30:15;;;;;;;13.80;6.50;;;;;;;2.68;72.08;99974.92;107213;1260;108303;-71
2024/01/18 01:32:43;;;;;;;15.30;6.00;;;;;;;2.72;72.09;99978.17;107225;1261;99279;-71
2024/01/18 01:35:12;;;;;;;11.70;6.50;;;;;;;2.75;72.05;99968.38;107217;1256;99208;-71
2024/01/18 01:37:40;;;;;;;11.10;5.40;;;;;;;2.77;71.95;99958.88;107222;1260;113289;-70
2024/01/18 01:40:09;;;;;;;7.90;5.30;;;;;;;2.79;72.01;99952.86;107203;1256;107846;-70
2024/01/18 01:42:37;;;;;;;12.00;5.20;;;;;;;2.83;72.19;99940.38;107240;1260;108346;-69
2024/01/18 01:45:07;;;;;;;8.00;5.10;;;;;;;2.89;71.86;99925.46;107228;1257;99170;-69
2024/01/18 01:47:35;;;;;;;8.40;4.90;;;;;;;2.97;71.61;99914.97;107247;1260;100208;-70
2024/01/18 01:50:04;;;;;;;8.40;5.00;;;;;;;3.05;71.32;99915.17;107222;1257;113360;-74
2024/01/18 01:52:34;;;;;;;9.70;5.40;;;;;;;3.14;70.72;99905.14;106993;1257;107183;-72
2024/01/18 01:55:03;;;;;;;12.30;6.50;;;;;;;3.20;70.51;99895.86;107210;1262;107785;-70
2024/01/18 01:57:31;;;;;;;8.80;5.60;;;;;;;3.26;70.13;99897.34;107007;1262;99311;-69
2024/01/18 02:00:02;;;;;;;9.00;6.00;;;;;;;3.30;70.26;99899.20;107013;1262;99383;-71
2024/01/18 02:02:40;;;;;;;12.00;5.70;;;;;;;3.31;69.97;99904.61;107234;1260;113227;-70
2024/01/18 02:05:10;;;;;;;9.10;6.00;;;;;;;3.34;69.97;99902.48;107254;1260;107583;-70
2024/01/18 02:07:39;;;;;;;12.00;5.90;;;;;;;3.36;69.57;99888.46;107205;1260;108585;-70
2024/01/18 02:10:09;;;;;;;14.20;6.40;;;;;;;3.37;69.62;99882.57;107228;1262;99202;-70
2024/01/18 02:12:39;;;;;;;15.50;6.10;;;;;;;3.34;69.51;99884.56;107268;1257;99209;-70
2024/01/18 02:15:08;;;;;;;13.40;6.80;;;;;;;3.32;69.43;99882.93;107244;1258;112082;-69
2024/01/18 02:17:37;;;;;;;14.80;6.20;;;;;;;3.28;69.43;99876.95;107266;1259;106548;-70
2024/01/18 02:20:06;;;;;;;11.60;6.40;;;;;;;3.24;69.11;99882.94;107258;1257;107948;-68
2024/01/18 02:22:41;;;;;;;20.60;7.10;;;;;;;3.18;69.17;99892.05;107268;1256;99209;-69
2024/01/18 02:25:21;;;;;;;10.60;5.90;;;;;;;3.08;69.05;99894.38;107273;1260;99083;-69
2024/01/18 02:27:54;;;;;;;7.00;4.70;;;;;;;3.03;69.28;99895.98;107253;1260;113035;-69
2024/01/18 02:30:22;;;;;;;9.70;6.00;;;;;;;3.06;69.65;99904.06;107226;1260;106393;-70
2024/01/18 02:32:52;;;;;;;10.70;5.80;;;;;;;3.09;69.51;99902.64;107277;1257;107310;-70
2024/01/18 02:35:20;;;;;;;9.00;5.40;;;;;;;3.10;70.41;99897.07;107232;1262;99191;-70
2024/01/18 02:37:49;;;;;;;9.20;5.70;;;;;;;3.03;69.96;99895.80;107246;1260;99742;-70
2024/01/18 02:40:18;;;;;;;14.50;5.70;;;;;;;2.95;70.00;99893.66;107260;1255;112846;-69
2024/01/18 02:42:46;;;;;;;9.80;5.90;;;;;;;2.89;69.87;99883.16;107118;1258;108879;-71
2024/01/18 02:45:14;;;;;;;11.30;6.30;;;;;;;2.84;70.02;99870.92;107199;1260;107911;-70
2024/01/18 02:47:43;;;;;;;16.90;6.50;;;;;;;2.80;69.96;99860.77;107175;1260;99195;-70
2024/01/18 02:50:11;;;;;;;11.40;6.80;;;;;;;2.76;70.29;99863.33;107094;1261;99080;-70
2024/01/18 02:52:41;;;;;;;15.90;6.40;;;;;;;2.72;70.73;99856.02;107249;1257;114354;-70
2024/01/18 02:55:09;;;;;;;10.30;6.00;;;;;;;2.68;70.66;99859.09;107232;1258;108006;-71
2024/01/18 02:57:38;;;;;;;10.40;6.90;;;;;;;2.65;70.88;99858.21;107206;1260;107225;-71
2024/01/18 03:00:08;;;;;;;11.30;6.80;;;;;;;2.63;70.99;99858.58;107231;1260;99287;-71
2024/01/18 03:02:36;;;;;;;17.90;7.30;;;;;;;2.61;71.06;99853.74;107255;1257;99865;-69
2024/01/18 03:05:05;;;;;;;12.80;6.70;;;;;;;2.61;70.99;99836.56;107241;1260;113108;-70
2024/01/18 03:07:34;;;;;;;12.80;6.10;;;;;;;2.63;71.27;99831.80;107210;1260;107630;-71
2024/01/18 03:10:03;;;;;;;20.50;6.60;;;;;;;2.65;71.34;99825.17;107202;1258;107275;-72
2024/01/18 03:12:34;;;;;;;11.50;6.20;;;;;;;2.67;71.66;99816.86;107199;1257;99079;-69
2024/01/18 03:15:10;;;;;;;15.80;6.60;;;;;;;2.68;71.22;99809.21;107261;1260;99099;-70
2024/01/18 03:17:38;;;;;;;12.30;6.20;;;;;;;2.67;71.15;99810.13;107284;1260;111884;-70
2024/01/18 03:20:08;;;;;;;13.80;7.30;;;;;;;2.65;71.19;99809.17;107288;1257;107582;-70
2024/01/18 03:22:40;;;;;;;14.10;6.70;;;;;;;2.63;71.17;99804.05;107109;1256;106543;-70
2024/01/18 03:25:09;;;;;;;14.60;6.20;;;;;;;2.59;71.06;99806.97;107137;1262;99350;-71
2024/01/18 03:27:37;;;;;;;20.00;9.10;;;;;;;2.52;70.78;99808.51;107253;1261;99093;-70
2024/01/18 03:30:09;;;;;;;18.00;7.90;;;;;;;2.42;70.93;99817.90;107218;1257;114711;-70
2024/01/18 03:32:38;;;;;;;15.10;7.30;;;;;;;2.33;71.68;99811.40;107236;1260;107908;-70
2024/01/18 03:35:07;;;;;;;20.30;8.20;;;;;;;2.25;71.58;99810.73;107219;1259;107736;-68
2024/01/18 03:37:36;;;;;;;11.00;7.30;;;;;;;2.17;71.51;99813.96;107139;1257;99326;-72
2024/01/18 03:40:09;;;;;;;18.00;8.70;;;;;;;2.12;71.48;99811.15;107259;1257;99194;-72
2024/01/18 03:42:43;;;;;;;17.70;8.30;;;;;;;2.06;71.58;99810.25;107267;1260;112134;-69
2024/01/18 03:45:12;;;;;;;14.80;8.60;;;;;;;2.05;71.78;99805.41;107236;1257;107887;-71
2024/01/18 03:47:41;;;;;;;14.30;7.80;;;;;;;2.01;71.84;99793.42;107179;1260;107723;-70
2024/01/18 03:50:14;;;;;;;14.60;7.50;;;;;;;1.98;72.15;99800.91;107221;1257;99189;-70
2024/01/18 03:52:42;;;;;;;13.00;8.30;;;;;;;1.96;72.20;99788.52;107277;1260;99181;-71
2024/01/18 03:55:11;;;;;;;20.20;9.60;;;;;;;1.96;72.22;99779.69;107238;1257;113780;-70
2024/01/18 03:57:40;;;;;;;15.10;7.60;;;;;;;1.96;72.24;99771.02;107234;1261;108441;-70
2024/01/18 04:00:09;;;;;;;11.70;7.60;;;;;;;1.97;72.40;99771.83;107196;1258;108066;-70
2024/01/18 04:02:38;;;;;;;11.60;7.70;;;;;;;1.97;72.91;99760.09;107228;1256;99346;-70
2024/01/18 04:05:07;;;;;;;11.70;7.70;;;;;;;1.99;72.90;99758.24;107232;1257;99748;-70
2024/01/18 04:07:38;;;;;;;19.70;7.90;;;;;;;2.01;73.30;99759.81;107263;1256;112322;-70
2024/01/18 04:10:10;;;;;;;10.20;6.30;;;;;;;2.06;73.80;99754.08;107263;1257;106921;-70
2024/01/18 04:12:38;;;;;;;9.40;5.90;;;;;;;2.11;74.12;99752.81;107074;1262;108495;-71
2024/01/18 04:15:07;;;;;;;14.60;6.00;;;;;;;2.15;74.24;99748.25;107197;1257;99288;-70
2024/01/18 04:17:37;;;;;;;11.90;5.70;;;;;;;2.20;74.62;99747.20;107153;1257;99179;-70
2024/01/18 04:20:06;;;;;;;13.10;7.00;;;;;;;2.26;74.80;99742.04;107313;1257;113061;-69
2024/01/18 04:22:34;;;;;;;11.10;6.20;;;;;;;2.31;74.62;99752.11;107254;1257;107669;-68
2024/01/18 04:25:04;;;;;;;11.30;6.50;;;;;;;2.36;74.64;99753.35;107206;1257;107938;-70
2024/01/18 04:27:32;;;;;;;15.70;7.50;;;;;;;2.41;74.47;99756.06;107266;1256;99413;-71
2024/01/18 04:30:00;;;;;;;14.00;8.40;;;;;;;2.45;74.60;99753.60;107238;1260;99131;-69
2024/01/18 04:32:29;;;;;;;16.70;8.20;;;;;;;2.51;74.48;99753.56;107216;1257;113714;-70
2024/01/18 04:34:57;;;;;;;17.90;8.90;;;;;;;2.56;74.21;99750.35;107234;1257;108400;-70
2024/01/18 04:37:26;;;;;;;17.20;8.20;;;;;;;2.60;74.28;99756.09;107077;1257;108687;-71
2024/01/18 04:39:54;;;;;;;21.10;8.30;;;;;;;2.62;73.85;99760.73;107215;1257;99195;-71
2024/01/18 04:42:22;;;;;;;14.90;8.10;;;;;;;2.63;73.87;99746.83;107211;1258;99654;-71
2024/01/18 04:44:51;;;;;;;14.80;7.80;;;;;;;2.65;73.69;99740.50;107229;1257;112878;-71
2024/01/18 04:47:19;;;;;;;13.70;8.70;;;;;;;2.69;73.78;99731.74;107202;1258;107715;-71
2024/01/18 04:49:47;;;;;;;12.70;8.30;;;;;;;2.70;73.48;99731.32;106940;1257;107111;-71
2024/01/18 04:52:15;;;;;;;18.70;9.30;;;;;;;2.69;73.46;99735.98;107218;1258;99366;-70
2024/01/18 04:54:44;;;;;;;20.70;9.20;;;;;;;2.62;73.34;99739.89;107279;1257;99086;-72
2024/01/18 04:57:12;;;;;;;17.60;8.30;;;;;;;2.57;73.03;99744.42;107253;1257;111318;-70
2024/01/18 04:59:41;;;;;;;20.10;10.50;;;;;;;2.53;72.99;99740.67;107293;1257;107856;-70
2024/01/18 05:02:09;;;;;;;24.80;9.10;;;;;;;2.49;72.87;99744.87;107236;1257;108583;-70
2024/01/18 05:04:37;;;;;;;15.50;8.20;;;;;;;2.45;72.86;99745.64;107262;1256;99326;-70
2024/01/18 05:07:06;;;;;;;17.70;9.60;;;;;;;2.43;73.10;99738.55;107285;1257;99189;-70
2024/01/18 05:09:34;;;;;;;17.50;9.50;;;;;;;2.41;73.07;99741.84;107247;1257;112660;-70
2024/01/18 05:12:04;;;;;;;30.50;9.20;;;;;;;2.38;73.03;99737.27;107125;1257;108017;-69
2024/01/18 05:14:32;;;;;;;17.20;9.50;;;;;;;2.34;72.88;99732.79;107205;1257;108031;-70
2024/01/18 05:17:10;;;;;;;14.80;9.30;;;;;;;2.34;73.28;99733.01;107120;1257;99362;-69
2024/01/18 05:19:39;;;;;;;11.90;7.30;;;;;;;2.35;73.26;99735.20;107121;1256;99215;-70
2024/01/18 05:22:07;;;;;;;19.30;9.10;;;;;;;2.39;73.33;99734.27;107239;1257;112789;-70
2024/01/18 05:24:36;;;;;;;17.10;8.90;;;;;;;2.41;73.27;99734.80;107255;1257;108582;-71
2024/01/18 05:27:06;;;;;;;14.00;8.90;;;;;;;2.44;73.31;99726.63;107288;1257;108539;-70
2024/01/18 05:29:34;;;;;;;22.00;10.40;;;;;;;2.47;73.28;99722.86;107168;1257;99243;-70
2024/01/18 05:32:03;;;;;;;20.60;9.00;;;;;;;2.49;73.45;99718.80;107097;1257;99187;-69
2024/01/18 05:34:31;;;;;;;23.60;11.30;;;;;;;2.52;73.80;99714.23;107314;1256;112704;-69
2024/01/18 05:37:00;;;;;;;18.70;10.70;;;;;;;2.55;73.63;99714.67;107209;1259;108208;-71
2024/01/18 05:39:28;;;;;;;28.10;11.50;;;;;;;2.58;73.47;99708.12;107223;1257;107597;-70
2024/01/18 05:41:56;;;;;;;21.60;11.20;;;;;;;2.59;73.60;99707.66;107179;1257;99224;-70
2024/01/18 05:44:25;;;;;;;20.30;11.00;;;;;;;2.63;73.69;99705.11;107228;1256;99218;-70
2024/01/18 05:46:53;;;;;;;28.10;13.00;;;;;;;2.66;73.72;99700.98;107276;1257;112057;-70
2024/01/18 05:49:21;;;;;;;21.80;11.80;;;;;;;2.71;73.61;99698.69;107214;1257;107754;-70
2024/01/18 05:51:50;;;;;;;22.50;11.00;;;;;;;2.74;73.66;99695.27;107261;1257;107696;-70
2024/01/18 05:54:19;;;;;;;27.30;13.70;;;;;;;2.78;74.02;99695.49;107167;1257;99279;-71
2024/01/18 05:56:48;;;;;;;30.10;15.60;;;;;;;2.81;73.74;99695.80;107181;1260;99299;-71
2024/01/18 05:59:16;;;;;;;35.40;17.70;;;;;;;2.86;73.77;99699.39;107242;1257;113323;-70
2024/01/18 06:01:45;;;;;;;32.70;13.50;;;;;;;2.89;73.69;99699.33;107276;1256;107908;-70
2024/01/18 06:04:13;;;;;;;31.00;15.20;;;;;;;2.92;73.90;99693.59;107232;1257;107227;-69
2024/01/18 06:06:42;;;;;;;29.80;13.90;;;;;;;2.92;73.60;99697.45;107247;1256;99280;-70
2024/01/18 06:09:14;;;;;;;23.30;12.30;;;;;;;2.92;73.50;99690.05;107195;1256;99724;-69
2024/01/18 06:11:44;;;;;;;26.90;13.20;;;;;;;2.92;73.73;99687.92;107206;1257;112728;-70
2024/01/18 06:14:12;;;;;;;17.00;9.90;;;;;;;2.92;73.74;99689.34;107180;1257;108076;-69
2024/01/18 06:16:41;;;;;;;24.20;11.80;;;;;;;2.94;73.92;99692.77;107258;1257;108317;-70
2024/01/18 06:19:11;;;;;;;27.70;11.20;;;;;;;2.93;73.67;99693.31;107296;1256;99878;-70
2024/01/18 06:21:41;;;;;;;19.70;11.30;;;;;;;2.91;73.60;99689.75;107263;1256;99832;-70
2024/01/18 06:24:09;;;;;;;23.90;11.20;;;;;;;2.94;73.96;99687.06;107266;1256;113385;-70
2024/01/18 06:26:38;;;;;;;18.20;10.50;;;;;;;2.99;74.19;99682.81;107282;1256;107866;-69
2024/01/18 06:29:06;;;;;;;31.80;11.00;;;;;;;3.01;74.12;99683.33;107231;1256;108340;-69
2024/01/18 06:31:35;;;;;;;25.60;10.80;;;;;;;3.06;74.10;99679.48;107244;1257;99186;-69
2024/01/18 06:34:04;;;;;;;25.50;10.60;;;;;;;3.14;74.13;99684.02;107259;1256;99084;-70
2024/01/18 06:36:33;;;;;;;23.60;10.50;;;;;;;3.17;73.98;99678.65;107246;1257;112772;-71
2024/01/18 06:39:02;;;;;;;22.10;9.80;;;;;;;3.17;73.73;99682.52;107312;1254;107417;-72
2024/01/18 06:41:30;;;;;;;21.10;11.60;;;;;;;3.16;73.62;99675.19;107105;1254;108342;-70
2024/01/18 06:43:59;;;;;;;27.80;13.00;;;;;;;3.15;73.47;99667.27;107013;1264;99270;-70
2024/01/18 06:46:29;;;;;;;25.70;12.10;;;;;;;3.12;73.59;99670.99;107258;1256;99717;-70
2024/01/18 06:49:00;;;;;;;26.80;12.00;;;;;;;3.09;73.34;99656.40;107238;1256;112314;-70
2024/01/18 06:51:29;;;;;;;24.10;13.00;;;;;;;3.04;73.69;99662.04;107109;1256;108604;-70
2024/01/18 06:53:58;;;;;;;29.60;13.70;;;;;;;3.04;73.47;99665.06;107281;1257;107299;-70
2024/01/18 06:56:26;;;;;;;44.10;14.80;;;;;;;3.05;73.73;99664.45;107238;1257;99196;-70
2024/01/18 06:58:55;;;;;;;26.70;13.90;;;;;;;3.05;73.78;99664.48;107293;1259;99171;-70
2024/01/18 07:01:24;;;;;;;25.20;12.80;;;;;;;3.03;73.39;99659.35;107261;1259;113484;-70
2024/01/18 07:03:52;;;;;;;32.40;14.00;;;;;;;3.01;73.67;99661.25;107302;1257;108422;-70
2024/01/18 07:06:21;;;;;;;44.70;15.40;;;;;;;3.00;73.34;99656.31;107269;1259;107101;-70
2024/01/18 07:08:50;;;;;;;42.10;14.50;;;;;;;2.98;73.24;99651.20;107243;1257;99188;-69
2024/01/18 07:11:18;;;;;;;34.80;14.50;;;;;;;2.96;73.27;99642.98;107275;1257;99718;-69
2024/01/18 07:13:47;;;;;;;29.60;15.50;;;;;;;2.97;73.52;99643.25;107270;1257;113249;-69
2024/01/18 07:16:15;;;;;;;35.30;16.10;;;;;;;2.97;73.64;99637.05;107262;1259;107701;-69
2024/01/18 07:18:43;;;;;;;35.10;15.30;;;;;;;2.97;73.73;99642.90;107296;1257;107840;-68
2024/01/18 07:21:11;;;;;;;30.90;15.60;;;;;;;2.96;73.71;99640.82;107151;1256;99064;-68
2024/01/18 07:23:40;;;;;;;38.40;15.80;;;;;;;2.96;73.69;99640.15;107179;1257;99214;-69
2024/01/18 07:26:08;;;;;;;32.30;15.20;;;;;;;2.96;73.87;99635.21;107158;1257;112869;-69
2024/01/18 07:28:36;;;;;;;45.30;14.40;;;;;;;2.96;73.93;99632.87;107161;1257;108328;-69
2024/01/18 07:31:04;;;;;;;42.30;14.40;;;;;;;2.96;74.02;99630.61;107122;1257;108337;-69
2024/01/18 07:33:33;;;;;;;35.30;14.50;;;;;;;2.96;73.87;99629.32;107167;1257;99274;-69
2024/01/18 07:36:01;;;;;;;33.00;15.20;;;;;;;2.98;73.88;99630.48;107158;1257;99826;-69
2024/01/18 07:38:30;;;;;;;33.80;15.10;;;;;;;3.00;74.20;99626.04;107150;1257;112636;-70
2024/01/18 07:40:58;;;;;;;35.10;20.20;;;;;;;3.04;74.33;99620.66;107197;1256;108500;-70
2024/01/18 07:43:27;;;;;;;41.60;21.80;;;;;;;3.08;74.62;99617.48;107209;1257;108605;-69
2024/01/18 07:45:55;;;;;;;41.80;19.90;;;;;;;3.14;74.55;99614.91;107277;1255;99093;-68
2024/01/18 07:48:25;;;;;;;32.60;16.60;;;;;;;3.22;74.66;99616.93;107288;1256;99737;-69
2024/01/18 07:50:53;;;;;;;39.70;16.30;;;;;;;3.30;74.92;99606.77;107272;1257;111770;-69
2024/01/18 07:53:23;;;;;;;30.20;14.70;;;;;;;3.38;75.00;99604.40;107302;1257;107142;-69
2024/01/18 07:55:51;;;;;;;31.90;13.90;;;;;;;3.49;75.31;99604.44;107280;1256;108144;-69
2024/01/18 07:58:19;;;;;;;25.30;12.70;;;;;;;3.61;75.53;99606.86;107230;1257;99188;-68
2024/01/18 08:00:50;;;;;;;36.70;13.40;;;;;;;3.73;75.69;99612.50;107282;1256;99197;-69
2024/01/18 08:03:19;;;;;;;34.80;13.20;;;;;;;3.86;75.67;99605.08;107261;1257;112052;-69
2024/01/18 08:05:47;;;;;;;23.20;10.50;;;;;;;4.00;75.63;99608.03;107259;1259;107947;-69
2024/01/18 08:08:15;;;;;;;32.60;13.20;;;;;;;4.14;75.71;99608.19;107234;1259;107308;-69
2024/01/18 08:10:44;;;;;;;28.90;12.80;;;;;;;4.27;75.35;99608.63;107258;1255;99295;-69
2024/01/18 08:13:13;;;;;;;31.50;13.20;;;;;;;4.37;75.10;99604.80;107286;1259;99075;-69
2024/01/18 08:15:41;;;;;;;20.30;12.10;;;;;;;4.48;74.81;99600.16;107152;1256;113280;-69
2024/01/18 08:18:09;;;;;;;24.30;13.30;;;;;;;4.59;74.99;99599.77;107301;1254;107193;-69
2024/01/18 08:20:38;;;;;;;30.90;13.20;;;;;;;4.70;74.76;99600.84;107277;1259;107796;-70
2024/01/18 08:23:06;;;;;;;38.40;13.00;;;;;;;4.81;74.85;99603.63;107261;1257;99189;-69
2024/01/18 08:25:35;;;;;;;23.40;12.60;;;;;;;4.93;74.91;99600.20;107286;1256;99083;-70
2024/01/18 08:28:03;;;;;;;25.40;13.60;;;;;;;5.00;74.49;99603.29;107282;1257;113155;-69
2024/01/18 08:30:32;;;;;;;35.50;13.30;;;;;;;5.05;74.06;99602.60;107294;1257;108328;-69
2024/01/18 08:33:00;;;;;;;36.80;13.70;;;;;;;5.04;73.64;99594.13;107266;1256;108346;-70
2024/01/18 08:35:29;;;;;;;31.70;14.90;;;;;;;5.02;73.52;99592.50;107225;1257;99320;-68
2024/01/18 08:37:58;;;;;;;31.80;16.00;;;;;;;4.99;73.27;99592.17;107290;1259;100904;-68
2024/01/18 08:40:27;;;;;;;31.60;14.60;;;;;;;5.00;73.32;99591.46;107353;1257;112685;-69
2024/01/18 08:42:56;;;;;;;33.60;18.20;;;;;;;5.00;73.11;99589.48;107310;1257;109471;-69
2024/01/18 08:45:25;;;;;;;36.40;17.60;;;;;;;4.97;72.94;99590.77;106472;1259;914219;-69
2024/01/18 08:47:54;;;;;;;34.70;17.90;;;;;;;4.95;72.73;99587.21;107122;1257;99086;-69
2024/01/18 08:50:24;;;;;;;44.90;18.80;;;;;;;4.93;72.83;99584.73;107179;1256;99203;-69
2024/01/18 08:52:52;;;;;;;33.00;17.00;;;;;;;4.93;72.59;99580.63;107120;1256;111618;-69
2024/01/18 08:55:21;;;;;;;29.30;15.40;;;;;;;4.93;72.96;99577.97;107161;1257;107744;-68
2024/01/18 08:57:52;;;;;;;24.50;13.50;;;;;;;4.92;72.68;99574.31;107114;1256;107561;-69
2024/01/18 09:00:21;;;;;;;28.50;15.80;;;;;;;4.90;72.80;99574.13;107162;1257;99347;-70
2024/01/18 09:02:50;;;;;;;27.30;14.50;;;;;;;4.84;72.43;99569.88;107195;1257;99068;-70
2024/01/18 09:05:20;;;;;;;25.00;14.20;;;;;;;4.77;72.56;99566.70;107089;1256;113675;-69
2024/01/18 09:07:48;;;;;;;28.50;15.70;;;;;;;4.74;72.64;99563.58;107187;1260;108509;-69
2024/01/18 09:10:18;;;;;;;27.40;16.00;;;;;;;4.75;72.93;99554.41;107203;1256;107482;-70
2024/01/18 09:12:48;;;;;;;24.20;13.70;;;;;;;4.79;72.72;99554.61;107288;1257;99215;-69
2024/01/18 09:15:17;;;;;;;23.20;13.60;;;;;;;4.83;72.74;99548.77;107267;1257;99192;-68
2024/01/18 09:17:45;;;;;;;21.70;12.10;;;;;;;4.87;72.54;99546.48;107308;1257;112612;-70
2024/01/18 09:20:14;;;;;;;25.00;13.30;;;;;;;4.92;72.53;99547.16;107147;1257;108364;-69
2024/01/18 09:22:43;;;;;;;24.00;12.80;;;;;;;4.95;72.36;99549.70;107250;1259;108057;-69
2024/01/18 09:25:12;;;;;;;22.50;12.10;;;;;;;5.03;72.51;99548.35;107092;1256;99231;-70
2024/01/18 09:27:40;;;;;;;26.40;12.90;;;;;;;5.11;72.55;99544.11;107172;1256;99775;-70
2024/01/18 09:30:09;;;;;;;20.80;12.40;;;;;;;5.19;72.90;99534.05;107215;1255;113095;-68
2024/01/18 09:32:39;;;;;;;21.30;11.90;;;;;;;5.27;72.82;99531.06;107331;1259;106911;-68
2024/01/18 09:35:08;;;;;;;21.60;12.50;;;;;;;5.33;72.50;99532.33;107244;1259;108296;-67
2024/01/18 09:37:37;;;;;;;20.40;11.90;;;;;;;5.38;72.61;99527.73;107283;1255;99897;-68
2024/01/18 09:40:11;;;;;;;21.70;11.30;;;;;;;5.48;72.56;99530.63;107251;1257;99320;-68
2024/01/18 09:42:46;;;;;;;20.50;12.30;;;;;;;5.57;72.60;99528.07;107229;1256;112906;-68
2024/01/18 09:45:15;;;;;;;22.20;11.70;;;;;;;5.67;72.33;99524.20;107175;1256;108434;-68
2024/01/18 09:47:44;;;;;;;25.80;12.90;;;;;;;5.75;71.75;99518.33;107155;1256;108465;-69
2024/01/18 09:50:18;;;;;;;22.60;13.70;;;;;;;5.79;71.54;99518.88;107127;1257;99216;-70
2024/01/18 09:52:48;;;;;;;26.90;14.00;;;;;;;5.85;71.17;99514.31;107128;1256;99172;-69
2024/01/18 09:55:16;;;;;;;27.80;14.30;;;;;;;5.87;71.14;99510.72;107158;1256;113510;-69
2024/01/18 09:57:48;;;;;;;31.00;15.50;;;;;;;5.82;70.67;99508.98;107145;1260;108277;-68
2024/01/18 10:00:21;;;;;;;24.80;14.50;;;;;;;5.84;70.53;99511.89;107168;1256;107958;-68
2024/01/18 10:02:52;;;;;;;31.80;16.30;;;;;;;5.84;70.32;99511.83;107137;1256;99179;-70
2024/01/18 10:05:21;;;;;;;27.10;17.10;;;;;;;5.88;70.44;99506.34;107236;1257;99117;-68
2024/01/18 10:07:50;;;;;;;34.50;19.40;;;;;;;5.90;70.13;99496.37;107290;1257;113194;-71
2024/01/18 10:10:18;;;;;;;32.00;18.50;;;;;;;5.88;69.74;99493.47;107285;1256;109131;-69
2024/01/18 10:12:48;;;;;;;29.40;17.70;;;;;;;5.86;69.96;99485.71;107301;1256;108643;-70
2024/01/18 10:15:33;;;;;;;39.20;18.60;;;;;;;5.92;69.69;99485.52;107302;1257;99064;-68
2024/01/18 10:18:04;;;;;;;28.10;18.00;;;;;;;6.01;69.84;99481.73;107411;1254;99288;-70
2024/01/18 10:20:33;;;;;;;25.30;15.10;;;;;;;6.12;69.63;99478.95;107308;1257;112607;-70
2024/01/18 10:23:01;;;;;;;29.60;15.20;;;;;;;6.21;69.81;99476.77;107286;1256;108227;-70
2024/01/18 10:25:32;;;;;;;29.60;12.60;;;;;;;6.26;69.47;99471.25;107267;1257;108132;-68
2024/01/18 10:28:00;;;;;;;21.50;13.80;;;;;;;6.32;68.88;99466.67;107301;1257;99074;-70
2024/01/18 10:30:31;;;;;;;27.10;14.00;;;;;;;6.36;68.78;99464.52;107234;1256;99079;-69
2024/01/18 10:33:01;;;;;;;22.20;12.90;;;;;;;6.38;68.75;99463.44;107182;1256;112646;-68
2024/01/18 10:35:32;;;;;;;18.90;12.50;;;;;;;6.39;68.55;99459.42;107225;1256;108752;-69
2024/01/18 10:38:06;;;;;;;25.90;13.00;;;;;;;6.36;68.24;99455.02;107307;1257;107032;-70
2024/01/18 10:40:36;;;;;;;24.50;13.40;;;;;;;6.27;67.80;99445.73;107293;1257;99214;-70
2024/01/18 10:43:05;;;;;;;30.10;16.30;;;;;;;6.23;67.88;99443.36;107360;1255;99737;-69
2024/01/18 10:45:34;;;;;;;22.80;14.60;;;;;;;6.24;68.04;99441.15;107200;1257;113712;-68
2024/01/18 10:48:03;;;;;;;25.10;13.90;;;;;;;6.27;68.09;99438.61;107167;1256;108574;-69
2024/01/18 10:50:33;;;;;;;22.20;14.50;;;;;;;6.29;68.17;99435.75;107148;1256;108069;-70
2024/01/18 10:53:03;;;;;;;24.80;14.00;;;;;;;6.30;67.85;99429.48;107240;1254;99166;-70
2024/01/18 10:55:31;;;;;;;25.20;15.50;;;;;;;6.28;67.77;99418.06;107299;1256;99185;-70
2024/01/18 10:58:01;;;;;;;32.70;15.30;;;;;;;6.26;67.86;99409.99;107200;1256;113308;-70
2024/01/18 11:00:29;;;;;;;22.20;14.00;;;;;;;6.27;67.76;99403.56;107312;1257;107341;-70
2024/01/18 11:02:58;;;;;;;29.60;16.30;;;;;;;6.21;67.43;99398.01;107319;1256;108538;-69
2024/01/18 11:05:28;;;;;;;18.50;13.40;;;;;;;6.11;67.09;99394.46;107272;1257;99182;-69
2024/01/18 11:07:58;;;;;;;25.10;14.60;;;;;;;6.06;67.12;99387.30;107377;1257;99109;-71
2024/01/18 11:10:26;;;;;;;28.20;15.30;;;;;;;6.02;66.91;99383.03;107228;1257;112652;-70
2024/01/18 11:12:54;;;;;;;22.80;14.30;;;;;;;6.07;67.33;99380.27;107371;1254;108346;-69
2024/01/18 11:15:23;;;;;;;25.90;14.70;;;;;;;6.06;67.00;99374.82;107154;1254;106849;-69
2024/01/18 11:17:52;;;;;;;26.60;15.70;;;;;;;6.07;66.86;99368.56;107122;1257;99224;-68
2024/01/18 11:20:21;;;;;;;37.20;18.60;;;;;;;6.18;67.23;99367.67;107274;1257;99223;-69
2024/01/18 11:22:49;;;;;;;32.80;16.60;;;;;;;6.37;66.86;99363.48;107268;1255;113462;-72
2024/01/18 11:25:30;;;;;;;28.20;13.90;;;;;;;6.76;66.72;99353.02;107325;1256;108124;-70